createdAt,value
2022-11-22T00:00:03.325Z,85.1
2022-11-22T00:01:03.567Z,85.24
2022-11-22T00:02:03.661Z,85.05
2022-11-22T00:03:03.263Z,84.67
2022-11-22T00:04:03.252Z,84.77
2022-11-22T00:05:03.235Z,84.67
2022-11-22T00:06:03.215Z,84.67
2022-11-22T00:07:03.656Z,84.67
2022-11-22T00:08:03.425Z,84.67
2022-11-22T00:09:03.153Z,84.67
2022-11-22T00:10:03.386Z,85.14
2022-11-22T00:11:03.116Z,84.67
2022-11-22T00:12:03.093Z,84.77
2022-11-22T00:13:03.375Z,85.42
2022-11-22T00:14:03.082Z,85.24
2022-11-22T00:15:03.040Z,85.24
2022-11-22T00:16:03.274Z,85.24
2022-11-22T00:17:03.261Z,85.05
2022-11-22T00:18:03.243Z,85.33
2022-11-22T00:19:02.963Z,85.33
2022-11-22T00:20:03.196Z,85.33
2022-11-22T00:21:02.923Z,85.33
2022-11-22T00:22:03.170Z,85.33
2022-11-22T00:23:03.147Z,85.52
2022-11-22T00:24:03.125Z,85.24
2022-11-22T00:25:02.853Z,85.42
2022-11-22T00:26:02.836Z,85.61
2022-11-22T00:27:02.810Z,85.52
2022-11-22T00:28:02.795Z,85.71
2022-11-22T00:29:03.055Z,85.52
2022-11-22T00:30:03.040Z,85.52
2022-11-22T00:31:02.740Z,85.33
2022-11-22T00:32:02.972Z,85.14
2022-11-22T00:33:02.957Z,84.95
2022-11-22T00:34:02.936Z,85.14
2022-11-22T00:35:02.915Z,85.61
2022-11-22T00:36:02.647Z,84.77
2022-11-22T00:37:02.877Z,84.58
2022-11-22T00:38:02.607Z,84.67
2022-11-22T00:39:02.590Z,84.86
2022-11-22T00:40:02.870Z,84.67
2022-11-22T00:41:02.817Z,84.77
2022-11-22T00:42:02.786Z,84.67
2022-11-22T00:43:02.764Z,84.77
2022-11-22T00:44:02.762Z,84.77
2022-11-22T00:45:02.760Z,84.67
2022-11-22T00:46:02.477Z,84.77
2022-11-22T00:47:02.435Z,84.77
2022-11-22T00:48:02.680Z,84.67
2022-11-22T00:49:02.650Z,84.77
2022-11-22T00:50:02.377Z,84.67
2022-11-22T00:51:02.614Z,84.58
2022-11-22T00:52:02.339Z,84.67
2022-11-22T00:53:02.581Z,85.42
2022-11-22T00:54:02.568Z,85.05
2022-11-22T00:55:02.538Z,85.14
2022-11-22T00:56:02.261Z,85.33
2022-11-22T00:57:02.521Z,85.33
2022-11-22T00:58:02.506Z,85.14
2022-11-22T00:59:02.474Z,85.24
2022-11-22T01:00:02.189Z,85.14
2022-11-22T01:01:02.831Z,85.14
2022-11-22T01:02:02.436Z,85.33
2022-11-22T01:03:02.129Z,85.33
2022-11-22T01:04:02.371Z,85.24
2022-11-22T01:05:02.093Z,85.8
2022-11-22T01:06:02.334Z,85.52
2022-11-22T01:07:02.354Z,85.42
2022-11-22T01:08:02.295Z,85.99
2022-11-22T01:09:02.278Z,85.61
2022-11-22T01:10:02.256Z,85.52
2022-11-22T01:11:01.976Z,85.24
2022-11-22T01:12:01.964Z,85.71
2022-11-22T01:13:02.199Z,85.33
2022-11-22T01:14:02.256Z,85.61
2022-11-22T01:15:01.976Z,85.52
2022-11-22T01:16:01.957Z,85.9
2022-11-22T01:17:02.222Z,86.09
2022-11-22T01:18:02.205Z,86.37
2022-11-22T01:19:01.903Z,86.37
2022-11-22T01:20:01.901Z,86.75
2022-11-22T01:21:02.121Z,87.23
2022-11-22T01:22:02.100Z,87.23
2022-11-22T01:23:01.825Z,87.6
2022-11-22T01:24:01.809Z,87.88
2022-11-22T01:25:02.052Z,87.98
2022-11-22T01:26:02.020Z,88.26
2022-11-22T01:27:02.007Z,88.26
2022-11-22T01:28:01.731Z,88.45
2022-11-22T01:29:01.715Z,88.26
2022-11-22T01:30:01.697Z,88.26
2022-11-22T01:31:01.932Z,88.74
2022-11-22T01:32:01.654Z,89.02
2022-11-22T01:33:01.921Z,88.93
2022-11-22T01:34:01.643Z,89.21
2022-11-22T01:35:01.599Z,89.12
2022-11-22T01:36:01.579Z,89.12
2022-11-22T01:37:01.566Z,88.83
2022-11-22T01:38:01.795Z,88.45
2022-11-22T01:39:01.782Z,88.64
2022-11-22T01:40:01.757Z,88.55
2022-11-22T01:41:01.487Z,88.74
2022-11-22T01:42:01.721Z,87.98
2022-11-22T01:43:01.703Z,87.88
2022-11-22T01:44:01.429Z,88.17
2022-11-22T01:45:01.666Z,88.26
2022-11-22T01:46:01.644Z,88.74
2022-11-22T01:47:01.373Z,89.12
2022-11-22T01:48:01.351Z,89.12
2022-11-22T01:49:01.615Z,89.12
2022-11-22T01:50:01.338Z,89.02
2022-11-22T01:51:01.556Z,89.21
2022-11-22T01:52:01.529Z,89.12
2022-11-22T01:53:01.515Z,88.83
2022-11-22T01:54:01.508Z,88.36
2022-11-22T01:55:01.475Z,88.64
2022-11-22T01:56:01.454Z,88.83
2022-11-22T01:57:01.437Z,89.12
2022-11-22T01:58:01.161Z,89.59
2022-11-22T01:59:01.400Z,89.5
2022-11-22T02:00:01.390Z,89.5
2022-11-22T02:01:01.498Z,90.06
2022-11-22T02:02:01.089Z,90.25
2022-11-22T02:03:01.067Z,90.82
2022-11-22T02:04:01.310Z,91.58
2022-11-22T02:05:01.319Z,91.39
2022-11-22T02:06:01.042Z,91.58
2022-11-22T02:07:02.117Z,92.05
2022-11-22T02:08:01.781Z,91.39
2022-11-22T02:09:02.022Z,91.29
2022-11-22T02:10:01.749Z,91.48
2022-11-22T02:11:01.989Z,91.29
2022-11-22T02:12:01.704Z,91.01
2022-11-22T02:13:01.942Z,91.29
2022-11-22T02:14:01.922Z,91.58
2022-11-22T02:15:01.918Z,91.67
2022-11-22T02:16:01.885Z,91.86
2022-11-22T02:17:01.608Z,92.14
2022-11-22T02:18:01.589Z,91.77
2022-11-22T02:19:01.827Z,91.48
2022-11-22T02:20:01.818Z,91.01
2022-11-22T02:21:01.818Z,91.2
2022-11-22T02:22:01.794Z,91.01
2022-11-22T02:23:01.751Z,91.29
2022-11-22T02:24:01.735Z,91.2
2022-11-22T02:25:01.455Z,91.39
2022-11-22T02:26:01.695Z,91.2
2022-11-22T02:27:01.422Z,91.2
2022-11-22T02:28:01.412Z,91.29
2022-11-22T02:29:01.635Z,91.01
2022-11-22T02:30:01.619Z,91.29
2022-11-22T02:31:01.594Z,91.39
2022-11-22T02:32:01.584Z,91.77
2022-11-22T02:33:01.303Z,91.29
2022-11-22T02:34:04.275Z,91.2
2022-11-22T02:35:01.525Z,91.39
2022-11-22T02:36:01.518Z,91.39
2022-11-22T02:37:01.512Z,91.96
2022-11-22T02:38:01.239Z,91.67
2022-11-22T02:39:01.446Z,91.77
2022-11-22T02:40:01.173Z,91.67
2022-11-22T02:41:01.406Z,91.77
2022-11-22T02:42:01.136Z,92.24
2022-11-22T02:43:01.369Z,92.33
2022-11-22T02:44:01.355Z,92.71
2022-11-22T02:45:01.327Z,92.61
2022-11-22T02:46:01.315Z,92.9
2022-11-22T02:47:01.292Z,92.8
2022-11-22T02:48:01.277Z,92.61
2022-11-22T02:49:00.997Z,92.8
2022-11-22T02:50:01.241Z,93.18
2022-11-22T02:51:01.218Z,93.18
2022-11-22T02:52:00.943Z,93.75
2022-11-22T02:53:01.215Z,93.85
2022-11-22T02:54:01.184Z,94.13
2022-11-22T02:55:01.162Z,94.51
2022-11-22T02:56:00.866Z,94.32
2022-11-22T02:57:00.849Z,94.98
2022-11-22T02:58:01.087Z,94.98
2022-11-22T02:59:00.816Z,95.07
2022-11-22T03:00:00.795Z,94.98
2022-11-22T03:01:00.900Z,94.42
2022-11-22T03:02:05.636Z,94.42
2022-11-22T03:03:00.741Z,94.98
2022-11-22T03:04:00.718Z,94.89
2022-11-22T03:05:00.998Z,94.98
2022-11-22T03:06:00.680Z,94.98
2022-11-22T03:07:00.670Z,94.89
2022-11-22T03:08:00.895Z,95.17
2022-11-22T03:09:00.910Z,94.79
2022-11-22T03:10:00.881Z,94.98
2022-11-22T03:11:00.589Z,95.45
2022-11-22T03:12:00.564Z,96.31
2022-11-22T03:13:00.805Z,96.02
2022-11-22T03:14:00.788Z,96.5
2022-11-22T03:15:00.519Z,96.78
2022-11-22T03:16:00.753Z,97.06
2022-11-22T03:17:00.472Z,96.88
2022-11-22T03:18:00.453Z,97.16
2022-11-22T03:19:00.702Z,97.72
2022-11-22T03:20:00.416Z,98.39
2022-11-22T03:21:00.656Z,98.29
2022-11-22T03:22:00.374Z,98.96
2022-11-22T03:23:00.618Z,99.24
2022-11-22T03:24:00.595Z,99.99
2022-11-22T03:25:00.636Z,99.99
2022-11-22T03:26:00.585Z,99.99
2022-11-22T03:27:00.540Z,99.99
2022-11-22T03:28:00.530Z,99.99
2022-11-22T03:29:00.505Z,99.99
2022-11-22T03:30:00.492Z,99.99
2022-11-22T03:31:00.212Z,99.99
2022-11-22T03:32:00.447Z,99.99
2022-11-22T03:33:00.435Z,99.99
2022-11-22T03:49:49.620Z,99.99
2022-11-22T03:50:49.292Z,99.99
2022-11-22T03:51:49.528Z,99.99
2022-11-22T03:52:49.246Z,99.99
2022-11-22T03:53:49.486Z,99.99
2022-11-22T03:54:49.457Z,99.99
2022-11-22T03:55:49.445Z,99.99
2022-11-22T03:56:49.168Z,99.99
2022-11-22T03:57:49.142Z,99.99
2022-11-22T03:58:49.383Z,99.99
2022-11-22T03:59:49.362Z,99.99
2022-11-22T04:00:49.085Z,99.99
2022-11-22T04:01:49.302Z,99.99
2022-11-22T04:02:49.303Z,99.99
2022-11-22T04:03:49.554Z,99.99
2022-11-22T04:04:49.527Z,99.99
2022-11-22T04:05:49.568Z,99.99
2022-11-22T04:06:49.238Z,99.99
2022-11-22T04:07:49.603Z,99.99
2022-11-22T04:08:49.598Z,99.99
2022-11-22T04:09:49.437Z,99.99
2022-11-22T04:10:49.414Z,99.99
2022-11-22T04:11:49.399Z,99.99
2022-11-22T04:12:49.128Z,99.99
2022-11-22T04:13:49.360Z,99.99
2022-11-22T04:14:49.340Z,99.99
2022-11-22T04:15:49.065Z,99.99
2022-11-22T04:16:49.299Z,99.99
2022-11-22T04:17:49.030Z,99.99
2022-11-22T04:18:49.264Z,99.99
2022-11-22T04:19:49.249Z,99.99
2022-11-22T04:20:49.222Z,99.99
2022-11-22T04:21:49.266Z,99.99
2022-11-22T04:22:49.188Z,99.99
2022-11-22T04:23:49.171Z,99.99
2022-11-22T04:24:49.146Z,99.99
2022-11-22T04:25:49.132Z,99.99
2022-11-22T04:26:49.148Z,99.99
2022-11-22T04:27:49.095Z,99.99
2022-11-22T04:29:11.595Z,99.99
2022-11-22T04:29:49.056Z,99.99
2022-11-22T04:30:49.036Z,99.99
2022-11-22T04:31:48.762Z,99.99
2022-11-22T04:32:48.995Z,99.99
2022-11-22T04:33:49.034Z,99.99
2022-11-22T04:34:48.708Z,99.99
2022-11-22T04:35:48.957Z,99.99
2022-11-22T04:36:48.924Z,99.99
2022-11-22T04:37:48.966Z,99.99
2022-11-22T04:38:48.632Z,99.99
2022-11-22T04:39:48.613Z,99.99
2022-11-22T04:40:48.852Z,99.99
2022-11-22T04:41:48.831Z,99.99
2022-11-22T04:42:48.815Z,99.99
2022-11-22T04:43:48.797Z,99.99
2022-11-22T04:44:48.524Z,99.99
2022-11-22T04:45:48.759Z,99.99
2022-11-22T04:46:48.747Z,99.99
2022-11-22T04:47:52.669Z,99.99
2022-11-22T04:48:48.751Z,99.99
2022-11-22T04:49:48.687Z,99.99
2022-11-22T04:50:48.688Z,99.99
2022-11-22T04:51:48.402Z,99.99
2022-11-22T04:52:48.632Z,99.99
2022-11-22T04:53:48.658Z,99.99
2022-11-22T04:54:48.591Z,99.99
2022-11-22T04:55:48.323Z,99.99
2022-11-22T04:56:48.298Z,99.99
2022-11-22T04:57:48.534Z,99.99
2022-11-22T04:58:48.358Z,99.99
2022-11-22T04:59:48.496Z,99.99
2022-11-22T05:00:48.389Z,99.99
2022-11-22T05:01:48.203Z,99.99
2022-11-22T05:02:48.442Z,99.99
2022-11-22T05:03:48.499Z,99.99
2022-11-22T05:04:53.051Z,99.99
2022-11-22T05:05:48.400Z,99.99
2022-11-22T05:06:48.367Z,99.99
2022-11-22T05:07:48.249Z,99.99
2022-11-22T05:08:48.084Z,99.99
2022-11-22T05:09:48.359Z,99.99
2022-11-22T05:10:48.036Z,99.99
2022-11-22T05:11:48.026Z,99.99
2022-11-22T05:12:48.256Z,99.99
2022-11-22T05:13:47.977Z,99.99
2022-11-22T05:14:48.217Z,99.99
2022-11-22T05:15:47.942Z,99.99
2022-11-22T05:16:48.183Z,99.99
2022-11-22T05:17:47.916Z,99.99
2022-11-22T05:18:48.143Z,99.99
2022-11-22T05:19:51.698Z,99.99
2022-11-22T05:20:48.104Z,99.99
2022-11-22T05:21:47.826Z,99.99
2022-11-22T05:22:47.809Z,99.99
2022-11-22T05:23:48.047Z,99.99
2022-11-22T05:24:48.037Z,99.99
2022-11-22T05:25:48.061Z,99.99
2022-11-22T05:26:48.007Z,99.99
2022-11-22T05:27:47.717Z,99.99
2022-11-22T05:28:47.957Z,99.99
2022-11-22T05:29:47.936Z,99.99
2022-11-22T05:30:47.919Z,99.99
2022-11-22T05:31:53.250Z,99.99
2022-11-22T05:32:47.896Z,99.99
2022-11-22T05:33:47.608Z,99.99
2022-11-22T05:34:47.842Z,99.99
2022-11-22T05:35:47.825Z,99.99
2022-11-22T05:36:47.807Z,99.99
2022-11-22T05:37:47.792Z,99.99
2022-11-22T05:38:47.767Z,99.99
2022-11-22T05:39:47.759Z,99.99
2022-11-22T05:40:47.471Z,99.99
2022-11-22T05:41:47.767Z,99.99
2022-11-22T05:42:47.695Z,99.99
2022-11-22T05:43:47.430Z,99.99
2022-11-22T05:44:47.655Z,99.99
2022-11-22T05:45:47.638Z,99.99
2022-11-22T05:46:47.372Z,99.99
2022-11-22T05:47:47.347Z,99.99
2022-11-22T05:48:47.580Z,99.99
2022-11-22T05:49:47.562Z,99.99
2022-11-22T05:50:47.551Z,99.99
2022-11-22T05:51:47.528Z,99.99
2022-11-22T05:52:47.506Z,99.99
2022-11-22T05:53:47.492Z,99.99
2022-11-22T05:54:47.215Z,99.99
2022-11-22T05:55:47.452Z,99.99
2022-11-22T05:56:47.439Z,99.99
2022-11-22T05:57:47.475Z,99.99
2022-11-22T05:58:47.393Z,99.99
2022-11-22T05:59:47.380Z,99.99
2022-11-22T06:00:47.364Z,99.99
2022-11-22T06:01:47.454Z,99.99
2022-11-22T06:02:47.323Z,99.99
2022-11-22T06:03:47.306Z,99.99
2022-11-22T06:04:47.029Z,99.99
2022-11-22T06:05:47.011Z,99.99
2022-11-22T06:06:47.246Z,99.99
2022-11-22T06:07:47.056Z,99.99
2022-11-22T06:08:47.211Z,99.99
2022-11-22T06:09:47.192Z,99.99
2022-11-22T06:10:46.917Z,99.99
2022-11-22T06:11:47.155Z,99.99
2022-11-22T06:12:47.143Z,99.99
2022-11-22T06:13:47.177Z,99.99
2022-11-22T06:14:46.847Z,99.99
2022-11-22T06:15:47.084Z,99.99
2022-11-22T06:16:47.071Z,99.99
2022-11-22T06:17:46.795Z,99.99
2022-11-22T06:18:47.028Z,99.99
2022-11-22T06:19:46.756Z,99.99
2022-11-22T06:20:46.737Z,99.99
2022-11-22T06:21:46.716Z,99.99
2022-11-22T06:22:47.176Z,99.99
2022-11-22T06:23:46.929Z,99.99
2022-11-22T06:24:46.660Z,99.99
2022-11-22T06:25:46.893Z,99.99
2022-11-22T06:26:46.877Z,99.99
2022-11-22T06:27:46.865Z,99.99
2022-11-22T06:28:46.855Z,99.99
2022-11-22T06:29:46.878Z,99.99
2022-11-22T06:30:46.814Z,99.99
2022-11-22T06:31:46.801Z,99.99
2022-11-22T06:32:46.916Z,99.99
2022-11-22T06:33:46.742Z,99.99
2022-11-22T06:34:46.469Z,99.99
2022-11-22T06:35:46.448Z,99.99
2022-11-22T06:36:46.441Z,99.99
2022-11-22T06:37:46.412Z,99.99
2022-11-22T06:38:46.395Z,99.99
2022-11-22T06:39:46.632Z,99.99
2022-11-22T06:40:46.616Z,99.99
2022-11-22T06:41:46.341Z,99.99
2022-11-22T06:42:46.584Z,99.99
2022-11-22T06:43:51.113Z,99.99
2022-11-22T06:44:46.542Z,99.99
2022-11-22T06:45:46.581Z,99.99
2022-11-22T06:46:46.516Z,99.99
2022-11-22T06:47:46.489Z,99.99
2022-11-22T06:48:46.471Z,99.99
2022-11-22T06:49:46.448Z,99.99
2022-11-22T06:50:46.173Z,99.99
2022-11-22T06:51:46.541Z,99.99
2022-11-22T06:52:46.135Z,99.99
2022-11-22T06:53:51.029Z,99.99
2022-11-22T06:54:46.356Z,99.99
2022-11-22T06:56:01.121Z,99.99
2022-11-22T06:56:46.317Z,99.99
2022-11-22T06:57:46.042Z,99.99
2022-11-22T06:58:46.278Z,99.99
2022-11-22T06:59:46.262Z,99.99
2022-11-22T07:00:46.055Z,99.99
2022-11-22T07:01:46.464Z,99.99
2022-11-22T07:02:46.209Z,99.99
2022-11-22T07:03:46.182Z,99.99
2022-11-22T07:05:25.402Z,99.99
2022-11-22T07:05:46.146Z,99.99
2022-11-22T07:06:46.233Z,99.99
2022-11-22T07:07:46.210Z,99.99
2022-11-22T07:08:46.106Z,99.99
2022-11-22T07:09:46.072Z,99.99
2022-11-22T07:10:46.094Z,99.99
2022-11-22T07:11:46.033Z,99.99
2022-11-22T07:12:45.760Z,99.99
2022-11-22T07:13:46.000Z,99.99
2022-11-22T07:14:45.978Z,99.99
2022-11-22T07:15:45.704Z,99.99
2022-11-22T07:16:45.937Z,99.99
2022-11-22T07:17:45.986Z,99.99
2022-11-22T07:18:45.906Z,99.99
2022-11-22T07:19:45.626Z,99.99
2022-11-22T07:20:45.872Z,99.99
2022-11-22T07:21:45.929Z,99.99
2022-11-22T07:22:45.837Z,99.99
2022-11-22T07:23:45.677Z,99.99
2022-11-22T07:24:45.535Z,99.99
2022-11-22T07:25:45.777Z,99.99
2022-11-22T07:26:45.753Z,99.99
2022-11-22T07:27:45.479Z,99.99
2022-11-22T07:28:45.724Z,99.99
2022-11-22T07:29:45.444Z,99.99
2022-11-22T07:30:46.861Z,99.99
2022-11-22T07:31:46.061Z,99.99
2022-11-22T07:32:45.784Z,99.99
2022-11-22T07:33:46.074Z,99.99
2022-11-22T07:34:45.998Z,99.99
2022-11-22T07:35:45.731Z,99.99
2022-11-22T07:36:45.968Z,99.99
2022-11-22T07:37:45.972Z,99.99
2022-11-22T07:38:45.934Z,99.99
2022-11-22T07:39:45.912Z,99.99
2022-11-22T07:40:45.889Z,99.99
2022-11-22T07:41:45.875Z,99.99
2022-11-22T07:42:45.855Z,99.99
2022-11-22T07:43:45.839Z,99.99
2022-11-22T07:44:45.819Z,99.99
2022-11-22T07:45:45.807Z,99.99
2022-11-22T07:46:45.523Z,99.99
2022-11-22T07:47:45.762Z,99.99
2022-11-22T07:48:45.485Z,99.99
2022-11-22T07:49:45.791Z,99.99
2022-11-22T07:50:45.705Z,99.99
2022-11-22T07:51:45.429Z,99.99
2022-11-22T07:52:45.672Z,99.99
2022-11-22T07:53:45.648Z,99.99
2022-11-22T07:54:45.374Z,99.99
2022-11-22T07:55:45.358Z,99.99
2022-11-22T07:56:45.346Z,99.99
2022-11-22T07:57:45.859Z,99.99
2022-11-22T07:58:45.553Z,99.99
2022-11-22T07:59:45.286Z,99.99
2022-11-22T08:00:45.526Z,99.99
2022-11-22T08:01:45.853Z,99.99
2022-11-22T08:02:45.482Z,99.99
2022-11-22T08:03:45.471Z,99.99
2022-11-22T08:04:45.446Z,99.99
2022-11-22T08:05:45.694Z,99.99
2022-11-22T08:06:45.413Z,99.99
2022-11-22T08:07:45.616Z,99.99
2022-11-22T08:08:45.116Z,99.99
2022-11-22T08:09:45.097Z,99.99
2022-11-22T08:10:45.341Z,99.99
2022-11-22T08:11:45.318Z,99.99
2022-11-22T08:12:45.045Z,99.99
2022-11-22T08:13:45.280Z,99.99
2022-11-22T08:14:45.004Z,99.99
2022-11-22T08:15:45.251Z,99.99
2022-11-22T08:16:45.328Z,99.99
2022-11-22T08:17:44.986Z,99.99
2022-11-22T08:18:45.191Z,99.99
2022-11-22T08:19:45.171Z,99.99
2022-11-22T08:20:45.163Z,99.99
2022-11-22T08:21:45.373Z,99.99
2022-11-22T08:22:44.870Z,99.99
2022-11-22T08:23:45.097Z,99.99
2022-11-22T08:24:44.825Z,99.99
2022-11-22T08:25:45.060Z,99.99
2022-11-22T08:26:45.045Z,99.99
2022-11-22T08:27:44.773Z,99.99
2022-11-22T08:28:45.030Z,99.99
2022-11-22T08:29:44.987Z,99.99
2022-11-22T08:30:44.715Z,99.99
2022-11-22T08:31:44.972Z,99.99
2022-11-22T08:32:44.962Z,99.99
2022-11-22T08:33:44.912Z,99.99
2022-11-22T08:34:49.248Z,99.99
2022-11-22T08:35:44.887Z,99.99
2022-11-22T08:36:44.608Z,99.99
2022-11-22T08:37:45.086Z,99.99
2022-11-22T08:38:44.580Z,99.99
2022-11-22T08:39:44.806Z,99.99
2022-11-22T08:40:44.796Z,99.99
2022-11-22T08:41:44.771Z,99.99
2022-11-22T08:42:44.754Z,99.99
2022-11-22T08:43:44.477Z,99.99
2022-11-22T08:44:44.721Z,99.99
2022-11-22T08:45:44.699Z,99.99
2022-11-22T08:46:44.919Z,99.99
2022-11-22T08:47:44.641Z,99.99
2022-11-22T08:48:44.880Z,99.99
2022-11-22T08:49:44.868Z,99.99
2022-11-22T08:50:44.845Z,99.99
2022-11-22T08:51:44.829Z,99.99
2022-11-22T08:52:44.823Z,99.99
2022-11-22T08:53:44.937Z,99.99
2022-11-22T08:54:44.774Z,99.99
2022-11-22T08:55:44.756Z,99.99
2022-11-22T08:56:44.491Z,99.99
2022-11-22T08:57:44.476Z,99.99
2022-11-22T08:58:44.967Z,99.99
2022-11-22T08:59:44.586Z,99.99
2022-11-22T09:00:44.417Z,99.99
2022-11-22T09:01:44.841Z,99.99
2022-11-22T09:02:44.627Z,99.99
2022-11-22T09:03:44.626Z,99.99
2022-11-22T09:04:44.596Z,99.99
2022-11-22T09:08:23.123Z,99.99
2022-11-22T09:09:40.291Z,99.99
2022-11-22T09:10:23.167Z,99.99
2022-11-22T09:11:23.303Z,99.99
2022-11-22T09:12:23.282Z,99.99
2022-11-22T09:13:23.264Z,99.99
2022-11-22T09:14:22.997Z,99.99
2022-11-22T09:15:23.228Z,99.99
2022-11-22T09:16:22.952Z,99.99
2022-11-22T09:17:23.195Z,99.99
2022-11-22T09:18:23.173Z,99.99
2022-11-22T09:19:23.160Z,99.99
2022-11-22T09:20:23.137Z,99.99
2022-11-22T09:21:23.129Z,99.99
2022-11-22T09:22:28.641Z,99.99
2022-11-22T09:23:23.090Z,99.99
2022-11-22T09:24:22.816Z,99.99
2022-11-22T09:25:23.304Z,99.99
2022-11-22T09:26:22.784Z,99.99
2022-11-22T09:27:23.019Z,99.99
2022-11-22T09:28:23.011Z,99.99
2022-11-22T09:29:22.983Z,99.99
2022-11-22T09:30:23.006Z,99.99
2022-11-22T09:31:22.953Z,99.99
2022-11-22T09:32:22.673Z,99.99
2022-11-22T09:33:22.911Z,99.99
2022-11-22T09:34:22.892Z,99.99
2022-11-22T09:35:22.900Z,99.99
2022-11-22T09:36:22.860Z,99.99
2022-11-22T09:37:22.744Z,99.99
2022-11-22T09:38:22.821Z,99.99
2022-11-22T09:39:22.815Z,99.99
2022-11-22T09:40:22.717Z,99.99
2022-11-22T09:41:23.018Z,99.99
2022-11-22T09:42:22.755Z,99.99
2022-11-22T09:43:22.487Z,99.99
2022-11-22T09:44:22.718Z,99.99
2022-11-22T09:45:22.709Z,99.99
2022-11-22T09:46:22.430Z,99.99
2022-11-22T09:47:22.771Z,99.99
2022-11-22T09:48:22.396Z,99.99
2022-11-22T09:49:22.644Z,99.99
2022-11-22T09:50:22.550Z,99.99
2022-11-22T09:51:22.607Z,99.99
2022-11-22T09:52:22.593Z,99.99
2022-11-22T09:53:22.570Z,99.99
2022-11-22T09:54:22.557Z,99.99
2022-11-22T09:55:26.611Z,99.99
2022-11-22T09:56:22.514Z,99.99
2022-11-22T09:57:22.736Z,99.99
2022-11-22T09:58:22.224Z,99.99
2022-11-22T09:59:22.460Z,99.99
2022-11-22T10:00:22.462Z,99.99
2022-11-22T10:01:22.424Z,99.99
2022-11-22T10:02:22.175Z,99.99
2022-11-22T10:03:22.143Z,99.99
2022-11-22T10:04:22.393Z,99.99
2022-11-22T10:05:22.367Z,99.99
2022-11-22T10:06:22.093Z,99.99
2022-11-22T10:07:22.453Z,99.99
2022-11-22T10:08:22.054Z,99.99
2022-11-22T10:09:22.294Z,99.99
2022-11-22T10:10:22.026Z,99.99
2022-11-22T10:11:22.001Z,99.99
2022-11-22T10:12:21.990Z,99.99
2022-11-22T10:13:22.460Z,99.99
2022-11-22T10:14:21.954Z,99.99
2022-11-22T10:15:22.189Z,99.99
2022-11-22T10:16:22.178Z,99.99
2022-11-22T10:17:22.160Z,99.99
2022-11-22T10:18:21.890Z,99.99
2022-11-22T10:19:22.126Z,99.99
2022-11-22T10:20:22.122Z,99.99
2022-11-22T10:21:22.095Z,99.99
2022-11-22T10:22:21.818Z,99.99
2022-11-22T10:23:22.065Z,99.99
2022-11-22T10:24:22.057Z,99.99
2022-11-22T10:25:21.769Z,99.99
2022-11-22T10:26:22.030Z,99.99
2022-11-22T10:27:21.742Z,99.99
2022-11-22T10:28:21.987Z,99.99
2022-11-22T10:29:22.207Z,99.99
2022-11-22T10:30:21.689Z,99.99
2022-11-22T10:31:21.927Z,99.99
2022-11-22T10:32:22.018Z,99.99
2022-11-22T10:33:21.896Z,99.99
2022-11-22T10:34:21.882Z,99.99
2022-11-22T10:35:21.606Z,99.99
2022-11-22T10:36:21.597Z,99.99
2022-11-22T10:37:21.581Z,99.99
2022-11-22T10:38:21.566Z,99.99
2022-11-22T10:39:21.801Z,99.99
2022-11-22T10:40:21.825Z,99.99
2022-11-22T10:41:22.068Z,99.99
2022-11-22T10:42:22.046Z,99.99
2022-11-22T10:43:22.029Z,99.99
2022-11-22T10:44:22.011Z,99.99
2022-11-22T10:45:22.240Z,99.99
2022-11-22T10:46:21.983Z,99.99
2022-11-22T10:47:21.711Z,99.99
2022-11-22T10:48:21.946Z,99.99
2022-11-22T10:49:21.944Z,99.99
2022-11-22T10:50:21.660Z,99.99
2022-11-22T10:51:21.903Z,99.99
2022-11-22T10:52:21.886Z,99.99
2022-11-22T10:53:21.877Z,99.99
2022-11-22T10:54:21.860Z,99.99
2022-11-22T10:55:21.845Z,99.99
2022-11-22T10:56:21.822Z,99.99
2022-11-22T10:57:21.811Z,99.99
2022-11-22T10:58:21.792Z,99.99
2022-11-22T10:59:28.681Z,99.99
2022-11-22T11:00:21.758Z,99.99
2022-11-22T11:01:22.199Z,99.99
2022-11-22T11:02:21.729Z,99.99
2022-11-22T11:03:21.455Z,99.99
2022-11-22T11:04:21.438Z,99.99
2022-11-22T11:05:21.424Z,99.99
2022-11-22T11:06:49.688Z,99.99
2022-11-22T11:07:22.544Z,99.99
2022-11-22T11:10:35.140Z,99.99
2022-11-22T11:11:22.930Z,99.99
2022-11-22T11:12:23.169Z,99.99
2022-11-22T11:13:23.157Z,99.99
2022-11-22T11:14:22.882Z,99.99
2022-11-22T11:15:22.885Z,99.99
2022-11-22T11:16:22.857Z,99.99
2022-11-22T11:17:23.335Z,99.99
2022-11-22T11:18:22.825Z,99.99
2022-11-22T11:19:23.057Z,99.99
2022-11-22T11:20:22.794Z,99.99
2022-11-22T11:21:22.781Z,99.99
2022-11-22T11:23:13.519Z,99.99
2022-11-22T11:23:24.079Z,99.99
2022-11-22T11:24:24.320Z,99.99
2022-11-22T11:25:24.301Z,99.99
2022-11-22T11:26:24.301Z,99.99
2022-11-22T11:27:24.270Z,99.99
2022-11-22T11:28:24.273Z,99.99
2022-11-22T11:29:24.237Z,99.99
2022-11-22T11:30:24.237Z,99.99
2022-11-22T11:31:24.248Z,99.99
2022-11-22T11:32:24.193Z,99.99
2022-11-22T11:33:24.432Z,99.99
2022-11-22T11:34:23.913Z,99.99
2022-11-22T11:35:23.887Z,99.99
2022-11-22T11:36:24.129Z,99.99
2022-11-22T11:37:24.169Z,99.99
2022-11-22T11:38:24.096Z,99.99
2022-11-22T11:39:24.082Z,99.99
2022-11-22T11:40:23.812Z,99.99
2022-11-22T11:41:23.803Z,99.99
2022-11-22T11:42:23.788Z,99.99
2022-11-22T11:43:23.765Z,99.99
2022-11-22T11:44:24.010Z,99.99
2022-11-22T11:45:24.005Z,99.99
2022-11-22T11:46:23.970Z,99.99
2022-11-22T11:47:23.801Z,99.99
2022-11-22T11:48:23.682Z,99.99
2022-11-22T11:49:24.173Z,99.99
2022-11-22T11:50:26.979Z,99.99
2022-11-22T11:51:23.900Z,99.99
2022-11-22T11:52:23.638Z,99.99
2022-11-22T11:53:23.864Z,99.99
2022-11-22T11:54:23.846Z,99.99
2022-11-22T11:55:23.839Z,99.99
2022-11-22T11:56:23.562Z,99.99
2022-11-22T11:57:23.798Z,99.99
2022-11-22T11:58:23.801Z,99.99
2022-11-22T11:59:23.527Z,99.99
2022-11-22T12:00:23.792Z,99.99
2022-11-22T12:01:23.488Z,99.99
2022-11-22T12:02:23.589Z,99.99
2022-11-22T12:03:23.714Z,99.99
2022-11-22T12:04:23.439Z,99.99
2022-11-22T12:05:23.917Z,99.99
2022-11-22T12:06:23.401Z,99.99
2022-11-22T12:07:23.513Z,99.99
2022-11-22T12:08:23.369Z,99.99
2022-11-22T12:09:23.617Z,99.99
2022-11-22T12:10:23.597Z,99.99
2022-11-22T12:11:23.588Z,99.99
2022-11-22T12:12:23.311Z,99.99
2022-11-22T12:13:23.553Z,99.99
2022-11-22T12:14:23.273Z,99.99
2022-11-22T12:15:23.517Z,99.99
2022-11-22T12:16:23.250Z,99.99
2022-11-22T12:17:23.485Z,99.99
2022-11-22T12:18:23.474Z,99.99
2022-11-22T12:19:27.369Z,99.99
2022-11-22T12:20:23.179Z,99.99
2022-11-22T12:21:23.668Z,99.99
2022-11-22T12:22:50.956Z,99.99
2022-11-22T12:23:23.395Z,99.99
2022-11-22T12:25:30.806Z,99.99
2022-11-22T12:25:44.104Z,99.99
2022-11-22T12:26:44.097Z,99.99
2022-11-22T12:27:43.818Z,99.99
2022-11-22T12:28:44.054Z,99.99
2022-11-22T12:29:43.785Z,99.99
2022-11-22T12:30:43.777Z,99.99
2022-11-22T12:31:43.747Z,99.99
2022-11-22T12:32:45.004Z,99.99
2022-11-22T12:33:45.007Z,99.99
2022-11-22T12:34:44.989Z,99.99
2022-11-22T12:35:44.944Z,99.99
2022-11-22T12:36:45.090Z,99.99
2022-11-22T12:37:44.937Z,99.99
2022-11-22T12:38:44.643Z,99.99
2022-11-22T12:39:44.883Z,99.99
2022-11-22T12:40:44.866Z,99.99
2022-11-22T12:41:44.872Z,99.99
2022-11-22T12:42:44.839Z,99.99
2022-11-22T12:43:44.819Z,99.99
2022-11-22T12:44:44.815Z,99.99
2022-11-22T12:45:44.787Z,99.99
2022-11-22T12:46:44.545Z,99.99
2022-11-22T12:47:44.753Z,99.99
2022-11-22T12:48:50.778Z,99.99
2022-11-22T12:49:44.724Z,99.99
2022-11-22T12:50:44.450Z,99.99
2022-11-22T12:51:44.688Z,99.99
2022-11-22T12:52:44.918Z,99.99
2022-11-22T12:53:44.662Z,99.99
2022-11-22T12:54:44.392Z,99.99
2022-11-22T12:55:44.372Z,99.99
2022-11-22T12:56:44.364Z,99.99
2022-11-22T12:57:44.691Z,99.99
2022-11-22T12:58:44.577Z,99.99
2022-11-22T12:59:44.560Z,99.99
2022-11-22T13:00:44.289Z,99.99
2022-11-22T13:01:44.474Z,99.99
2022-11-22T13:02:44.520Z,99.99
2022-11-22T13:03:44.247Z,99.99
2022-11-22T13:04:44.232Z,99.99
2022-11-22T13:05:44.207Z,99.99
2022-11-22T13:06:44.197Z,99.99
2022-11-22T13:07:44.351Z,99.99
2022-11-22T13:08:47.534Z,99.99
2022-11-22T13:09:44.403Z,99.99
2022-11-22T13:10:44.126Z,99.99
2022-11-22T13:11:44.373Z,99.99
2022-11-22T13:12:44.099Z,99.99
2022-11-22T13:13:44.334Z,99.99